sensor_id;sensor_type;location;lat;lon;timestamp;pressure;altitude;pressure_sealevel;temperature;humidity
70343;BME280;57767;42.068;24.752;2022-12-29T00:00:08;100038.19;;;4.89;73.60
70343;BME280;57767;42.068;24.752;2022-12-29T00:01:10;100017.16;;;4.81;72.83
70343;BME280;57767;42.068;24.752;2022-12-29T00:02:12;100038.03;;;4.90;73.36
70343;BME280;57767;42.068;24.752;2022-12-29T00:03:14;100040.09;;;4.87;73.66
70343;BME280;57767;42.068;24.752;2022-12-29T00:04:18;100042.50;;;4.80;72.82
70343;BME280;57767;42.068;24.752;2022-12-29T00:05:20;100041.94;;;4.77;73.65
70343;BME280;57767;42.068;24.752;2022-12-29T00:06:22;100046.59;;;4.83;73.63
70343;BME280;57767;42.068;24.752;2022-12-29T00:07:24;100046.31;;;4.86;73.05
70343;BME280;57767;42.068;24.752;2022-12-29T00:08:25;100047.69;;;4.90;72.32
70343;BME280;57767;42.068;24.752;2022-12-29T00:09:53;100043.13;;;4.92;72.20
70343;BME280;57767;42.068;24.752;2022-12-29T00:10:55;100049.72;;;4.96;73.02
70343;BME280;57767;42.068;24.752;2022-12-29T00:11:57;100043.66;;;4.95;72.72
70343;BME280;57767;42.068;24.752;2022-12-29T00:12:59;100049.03;;;5.03;72.60
70343;BME280;57767;42.068;24.752;2022-12-29T00:14:20;100051.50;;;5.05;71.72
70343;BME280;57767;42.068;24.752;2022-12-29T00:15:40;100052.00;;;5.09;71.32
70343;BME280;57767;42.068;24.752;2022-12-29T00:16:44;100050.91;;;5.11;71.22
70343;BME280;57767;42.068;24.752;2022-12-29T00:17:46;100055.88;;;5.14;71.09
70343;BME280;57767;42.068;24.752;2022-12-29T00:18:48;100058.34;;;5.16;71.32
70343;BME280;57767;42.068;24.752;2022-12-29T00:19:50;100047.88;;;5.16;71.87
70343;BME280;57767;42.068;24.752;2022-12-29T00:21:14;100058.88;;;5.19;70.98
70343;BME280;57767;42.068;24.752;2022-12-29T00:22:34;100071.09;;;5.28;71.16
70343;BME280;57767;42.068;24.752;2022-12-29T00:24:18;100050.72;;;5.22;71.59
70343;BME280;57767;42.068;24.752;2022-12-29T00:25:29;100075.06;;;5.32;72.08
70343;BME280;57767;42.068;24.752;2022-12-29T00:28:15;100074.50;;;5.38;71.58
70343;BME280;57767;42.068;24.752;2022-12-29T00:29:36;100076.16;;;5.39;71.94
70343;BME280;57767;42.068;24.752;2022-12-29T00:31:00;100079.59;;;5.40;71.82
70343;BME280;57767;42.068;24.752;2022-12-29T00:32:20;100081.13;;;5.43;72.44
70343;BME280;57767;42.068;24.752;2022-12-29T00:33:41;100086.03;;;5.46;72.32
70343;BME280;57767;42.068;24.752;2022-12-29T00:35:27;100068.03;;;5.43;72.58
70343;BME280;57767;42.068;24.752;2022-12-29T00:37:31;100080.38;;;5.50;72.14
70343;BME280;57767;42.068;24.752;2022-12-29T00:39:03;100083.53;;;5.54;72.77
70343;BME280;57767;42.068;24.752;2022-12-29T00:40:26;100088.38;;;5.49;72.39
70343;BME280;57767;42.068;24.752;2022-12-29T00:41:47;100091.53;;;5.52;72.60
70343;BME280;57767;42.068;24.752;2022-12-29T00:43:08;100090.44;;;5.55;73.16
70343;BME280;57767;42.068;24.752;2022-12-29T00:44:28;100096.50;;;5.55;72.54
70343;BME280;57767;42.068;24.752;2022-12-29T00:45:30;100098.97;;;5.57;73.10
70343;BME280;57767;42.068;24.752;2022-12-29T00:46:33;100104.03;;;5.58;73.29
70343;BME280;57767;42.068;24.752;2022-12-29T00:47:35;100103.63;;;5.63;73.35
70343;BME280;57767;42.068;24.752;2022-12-29T00:48:37;100099.19;;;5.63;72.78
70343;BME280;57767;42.068;24.752;2022-12-29T00:49:57;100104.72;;;5.60;72.80
70343;BME280;57767;42.068;24.752;2022-12-29T00:50:59;100103.06;;;5.59;73.38
70343;BME280;57767;42.068;24.752;2022-12-29T00:53:05;100100.31;;;5.61;73.42
70343;BME280;57767;42.068;24.752;2022-12-29T00:54:07;100103.34;;;5.66;73.27
70343;BME280;57767;42.068;24.752;2022-12-29T00:55:09;100102.66;;;5.64;73.60
70343;BME280;57767;42.068;24.752;2022-12-29T00:56:11;100100.72;;;5.66;74.28
70343;BME280;57767;42.068;24.752;2022-12-29T00:57:13;100092.16;;;5.64;73.63
70343;BME280;57767;42.068;24.752;2022-12-29T00:58:14;100108.81;;;5.72;73.86
70343;BME280;57767;42.068;24.752;2022-12-29T00:59:18;100096.81;;;5.70;73.55
70343;BME280;57767;42.068;24.752;2022-12-29T01:00:20;100104.09;;;5.76;72.71
70343;BME280;57767;42.068;24.752;2022-12-29T01:01:24;100103.22;;;5.85;72.55
70343;BME280;57767;42.068;24.752;2022-12-29T01:02:26;100099.63;;;5.86;72.91
70343;BME280;57767;42.068;24.752;2022-12-29T01:03:28;100103.63;;;5.90;72.83
70343;BME280;57767;42.068;24.752;2022-12-29T01:04:29;100094.13;;;5.89;73.04
70343;BME280;57767;42.068;24.752;2022-12-29T01:05:31;100094.94;;;5.90;72.66
70343;BME280;57767;42.068;24.752;2022-12-29T01:06:38;100097.78;;;5.96;72.68
70343;BME280;57767;42.068;24.752;2022-12-29T01:07:40;100097.66;;;5.98;72.60
70343;BME280;57767;42.068;24.752;2022-12-29T01:08:42;100097.22;;;6.02;72.80
70343;BME280;57767;42.068;24.752;2022-12-29T01:09:44;100095.94;;;6.06;72.83
70343;BME280;57767;42.068;24.752;2022-12-29T01:11:10;100099.22;;;6.08;72.59
70343;BME280;57767;42.068;24.752;2022-12-29T01:12:12;100079.16;;;5.99;72.25
70343;BME280;57767;42.068;24.752;2022-12-29T01:13:14;100092.72;;;6.13;72.60
70343;BME280;57767;42.068;24.752;2022-12-29T01:14:18;100097.00;;;6.14;72.58
70343;BME280;57767;42.068;24.752;2022-12-29T01:15:20;100091.47;;;6.17;72.58
70343;BME280;57767;42.068;24.752;2022-12-29T01:16:22;100083.59;;;6.17;72.06
70343;BME280;57767;42.068;24.752;2022-12-29T01:17:24;100079.91;;;6.09;72.17
70343;BME280;57767;42.068;24.752;2022-12-29T01:18:26;100087.88;;;6.18;72.92
70343;BME280;57767;42.068;24.752;2022-12-29T01:19:28;100080.16;;;6.16;72.35
70343;BME280;57767;42.068;24.752;2022-12-29T01:20:29;100093.78;;;6.20;72.52
70343;BME280;57767;42.068;24.752;2022-12-29T01:21:32;100093.78;;;6.20;72.29
70343;BME280;57767;42.068;24.752;2022-12-29T01:22:34;100093.63;;;6.21;72.78
70343;BME280;57767;42.068;24.752;2022-12-29T01:23:36;100080.16;;;6.16;72.78
70343;BME280;57767;42.068;24.752;2022-12-29T01:24:38;100095.41;;;6.21;72.11
70343;BME280;57767;42.068;24.752;2022-12-29T01:25:40;100077.66;;;6.15;72.98
70343;BME280;57767;42.068;24.752;2022-12-29T01:26:41;100080.97;;;6.17;72.82
70343;BME280;57767;42.068;24.752;2022-12-29T01:27:43;100088.53;;;6.20;72.80
70343;BME280;57767;42.068;24.752;2022-12-29T01:28:45;100084.56;;;6.16;72.60
70343;BME280;57767;42.068;24.752;2022-12-29T01:29:47;100084.41;;;6.17;73.00
70343;BME280;57767;42.068;24.752;2022-12-29T01:30:49;100087.72;;;6.19;72.73
70343;BME280;57767;42.068;24.752;2022-12-29T01:31:51;100081.94;;;6.16;72.79
70343;BME280;57767;42.068;24.752;2022-12-29T01:32:52;100079.03;;;6.19;73.10
70343;BME280;57767;42.068;24.752;2022-12-29T01:33:54;100076.84;;;6.14;72.50
70343;BME280;57767;42.068;24.752;2022-12-29T01:34:56;100078.78;;;6.12;73.20
70343;BME280;57767;42.068;24.752;2022-12-29T01:36:02;100079.47;;;6.14;73.69
70343;BME280;57767;42.068;24.752;2022-12-29T01:37:04;100082.75;;;6.16;73.00
70343;BME280;57767;42.068;24.752;2022-12-29T01:38:05;100079.84;;;6.19;73.20
70343;BME280;57767;42.068;24.752;2022-12-29T01:39:07;100075.44;;;6.20;72.54
70343;BME280;57767;42.068;24.752;2022-12-29T01:40:10;100071.81;;;6.21;72.99
70343;BME280;57767;42.068;24.752;2022-12-29T01:41:13;100075.09;;;6.23;72.46
70343;BME280;57767;42.068;24.752;2022-12-29T01:42:18;100066.22;;;6.16;72.82
70343;BME280;57767;42.068;24.752;2022-12-29T01:43:20;100068.53;;;6.19;73.31
70343;BME280;57767;42.068;24.752;2022-12-29T01:44:48;100069.72;;;6.24;73.00
70343;BME280;57767;42.068;24.752;2022-12-29T01:45:51;100064.19;;;6.27;72.79
70343;BME280;57767;42.068;24.752;2022-12-29T01:46:55;100060.72;;;6.27;72.28
70343;BME280;57767;42.068;24.752;2022-12-29T01:48:03;100053.31;;;6.22;72.64
70343;BME280;57767;42.068;24.752;2022-12-29T01:49:13;100067.00;;;6.34;72.17
70343;BME280;57767;42.068;24.752;2022-12-29T01:51:36;100064.38;;;6.34;71.77
70343;BME280;57767;42.068;24.752;2022-12-29T01:52:44;100060.44;;;6.30;72.36
70343;BME280;57767;42.068;24.752;2022-12-29T01:53:49;100056.84;;;6.31;72.69
70343;BME280;57767;42.068;24.752;2022-12-29T01:54:53;100059.13;;;6.34;72.63
70343;BME280;57767;42.068;24.752;2022-12-29T01:56:01;100067.53;;;6.37;72.32
70343;BME280;57767;42.068;24.752;2022-12-29T01:57:11;100055.25;;;6.38;71.62
70343;BME280;57767;42.068;24.752;2022-12-29T01:58:17;100057.28;;;6.44;72.10
70343;BME280;57767;42.068;24.752;2022-12-29T01:59:26;100047.38;;;6.38;71.66
70343;BME280;57767;42.068;24.752;2022-12-29T02:00:29;100044.81;;;6.46;71.93
70343;BME280;57767;42.068;24.752;2022-12-29T02:01:31;100046.78;;;6.44;71.37
70343;BME280;57767;42.068;24.752;2022-12-29T02:02:33;100044.22;;;6.52;71.74
70343;BME280;57767;42.068;24.752;2022-12-29T02:03:36;100049.16;;;6.55;71.18
70343;BME280;57767;42.068;24.752;2022-12-29T02:04:41;100043.75;;;6.57;71.15
70343;BME280;57767;42.068;24.752;2022-12-29T02:07:00;100037.53;;;6.58;71.45
70343;BME280;57767;42.068;24.752;2022-12-29T02:08:04;100032.59;;;6.55;71.39
70343;BME280;57767;42.068;24.752;2022-12-29T02:09:05;100034.09;;;6.57;71.26
70343;BME280;57767;42.068;24.752;2022-12-29T02:10:07;100039.69;;;6.62;70.58
70343;BME280;57767;42.068;24.752;2022-12-29T02:11:09;100036.38;;;6.60;71.17
70343;BME280;57767;42.068;24.752;2022-12-29T02:12:11;100038.88;;;6.62;71.59
70343;BME280;57767;42.068;24.752;2022-12-29T02:13:16;100033.75;;;6.60;71.15
70343;BME280;57767;42.068;24.752;2022-12-29T02:14:18;100031.13;;;6.60;71.58
70343;BME280;57767;42.068;24.752;2022-12-29T02:15:31;100032.63;;;6.63;70.91
70343;BME280;57767;42.068;24.752;2022-12-29T02:23:35;100030.50;;;6.58;71.58
70343;BME280;57767;42.068;24.752;2022-12-29T02:34:19;100015.75;;;6.22;72.29
70343;BME280;57767;42.068;24.752;2022-12-29T02:40:24;100000.31;;;6.36;69.03
70343;BME280;57767;42.068;24.752;2022-12-29T02:41:33;100007.59;;;6.42;69.21
70343;BME280;57767;42.068;24.752;2022-12-29T02:44:42;100010.94;;;6.35;68.79
70343;BME280;57767;42.068;24.752;2022-12-29T02:48:22;100008.50;;;6.16;68.92
70343;BME280;57767;42.068;24.752;2022-12-29T02:50:01;99999.16;;;6.13;69.48
70343;BME280;57767;42.068;24.752;2022-12-29T02:51:15;100001.25;;;6.09;68.90
70343;BME280;57767;42.068;24.752;2022-12-29T02:52:27;99998.13;;;6.06;69.68
70343;BME280;57767;42.068;24.752;2022-12-29T02:53:32;99998.25;;;6.04;69.47
70343;BME280;57767;42.068;24.752;2022-12-29T02:54:54;99997.97;;;6.07;68.79
70343;BME280;57767;42.068;24.752;2022-12-29T02:55:56;99987.69;;;5.96;68.79
70343;BME280;57767;42.068;24.752;2022-12-29T02:56:57;99996.53;;;5.95;69.54
70343;BME280;57767;42.068;24.752;2022-12-29T02:59:10;99998.94;;;5.89;69.00
70343;BME280;57767;42.068;24.752;2022-12-29T03:00:16;100003.88;;;5.92;69.40
70343;BME280;57767;42.068;24.752;2022-12-29T03:04:37;100000.25;;;5.75;69.07
70343;BME280;57767;42.068;24.752;2022-12-29T03:08:09;99998.25;;;5.42;70.26
70343;BME280;57767;42.068;24.752;2022-12-29T03:09:25;99999.81;;;5.34;70.69
70343;BME280;57767;42.068;24.752;2022-12-29T03:15:09;99993.19;;;5.13;71.79
70343;BME280;57767;42.068;24.752;2022-12-29T03:16:43;100000.06;;;5.14;71.01
70343;BME280;57767;42.068;24.752;2022-12-29T03:17:52;100000.59;;;5.17;71.29
70343;BME280;57767;42.068;24.752;2022-12-29T03:18:59;99998.00;;;5.17;70.60
70343;BME280;57767;42.068;24.752;2022-12-29T03:20:12;99996.38;;;5.07;71.67
70343;BME280;57767;42.068;24.752;2022-12-29T03:22:47;99991.72;;;5.00;72.05
70343;BME280;57767;42.068;24.752;2022-12-29T03:23:50;99995.69;;;5.04;72.35
70343;BME280;57767;42.068;24.752;2022-12-29T03:24:59;99988.97;;;5.02;72.32
70343;BME280;57767;42.068;24.752;2022-12-29T03:26:06;99991.22;;;4.87;72.12
70343;BME280;57767;42.068;24.752;2022-12-29T03:27:14;99990.97;;;4.81;72.24
70343;BME280;57767;42.068;24.752;2022-12-29T03:28:28;99979.28;;;4.75;73.74
70343;BME280;57767;42.068;24.752;2022-12-29T03:29:40;99978.88;;;4.80;72.86
70343;BME280;57767;42.068;24.752;2022-12-29T03:30:43;99986.88;;;4.68;72.92
70343;BME280;57767;42.068;24.752;2022-12-29T03:31:48;99981.66;;;4.68;73.13
70343;BME280;57767;42.068;24.752;2022-12-29T03:32:54;99983.59;;;4.66;73.08
70343;BME280;57767;42.068;24.752;2022-12-29T03:33:58;99989.66;;;4.67;73.18
70343;BME280;57767;42.068;24.752;2022-12-29T03:35:00;99974.63;;;4.59;73.72
70343;BME280;57767;42.068;24.752;2022-12-29T03:36:05;99978.13;;;4.50;73.82
70343;BME280;57767;42.068;24.752;2022-12-29T03:37:15;99970.03;;;4.34;74.78
70343;BME280;57767;42.068;24.752;2022-12-29T03:38:23;99971.41;;;4.38;74.92
70343;BME280;57767;42.068;24.752;2022-12-29T03:39:26;99976.50;;;4.40;74.29
70343;BME280;57767;42.068;24.752;2022-12-29T03:40:29;99978.66;;;4.44;74.58
70343;BME280;57767;42.068;24.752;2022-12-29T03:41:33;99976.47;;;4.49;74.21
70343;BME280;57767;42.068;24.752;2022-12-29T03:42:36;99979.50;;;4.54;73.77
70343;BME280;57767;42.068;24.752;2022-12-29T03:43:38;99987.19;;;4.56;73.55
70343;BME280;57767;42.068;24.752;2022-12-29T03:44:42;99983.19;;;4.61;73.47
70343;BME280;57767;42.068;24.752;2022-12-29T03:45:44;99983.28;;;4.69;73.33
70343;BME280;57767;42.068;24.752;2022-12-29T03:46:46;99961.38;;;4.71;72.89
70343;BME280;57767;42.068;24.752;2022-12-29T03:47:48;99970.03;;;4.81;72.40
70343;BME280;57767;42.068;24.752;2022-12-29T03:48:50;99967.53;;;4.89;72.19
70343;BME280;57767;42.068;24.752;2022-12-29T03:49:52;99973.31;;;4.92;71.49
70343;BME280;57767;42.068;24.752;2022-12-29T03:50:54;99979.59;;;4.99;71.91
70343;BME280;57767;42.068;24.752;2022-12-29T03:51:55;99980.13;;;5.03;70.92
70343;BME280;57767;42.068;24.752;2022-12-29T03:52:57;99979.84;;;5.06;71.68
70343;BME280;57767;42.068;24.752;2022-12-29T03:53:59;99983.13;;;5.08;70.95
70343;BME280;57767;42.068;24.752;2022-12-29T03:55:01;99970.22;;;5.07;71.08
70343;BME280;57767;42.068;24.752;2022-12-29T03:56:03;99979.41;;;5.11;70.41
70343;BME280;57767;42.068;24.752;2022-12-29T03:57:04;99961.97;;;5.01;70.35
70343;BME280;57767;42.068;24.752;2022-12-29T03:58:06;99976.25;;;5.07;70.30
70343;BME280;57767;42.068;24.752;2022-12-29T03:59:08;99971.84;;;5.08;70.09
70343;BME280;57767;42.068;24.752;2022-12-29T04:00:10;99980.50;;;5.08;70.48
70343;BME280;57767;42.068;24.752;2022-12-29T04:01:12;99982.31;;;5.08;69.70
70343;BME280;57767;42.068;24.752;2022-12-29T04:02:14;99981.28;;;4.91;71.41
70343;BME280;57767;42.068;24.752;2022-12-29T04:03:18;99981.16;;;4.92;71.51
70343;BME280;57767;42.068;24.752;2022-12-29T04:04:20;99970.56;;;4.84;72.27
70343;BME280;57767;42.068;24.752;2022-12-29T04:05:22;99974.19;;;4.74;72.72
70343;BME280;57767;42.068;24.752;2022-12-29T04:06:24;99975.31;;;4.61;73.05
70343;BME280;57767;42.068;24.752;2022-12-29T04:07:25;99970.53;;;4.47;74.04
70343;BME280;57767;42.068;24.752;2022-12-29T04:08:27;99967.13;;;4.37;74.74
70343;BME280;57767;42.068;24.752;2022-12-29T04:09:29;99973.91;;;4.30;75.58
70343;BME280;57767;42.068;24.752;2022-12-29T04:10:32;99979.78;;;4.42;75.75
70343;BME280;57767;42.068;24.752;2022-12-29T04:11:34;99989.94;;;4.54;75.25
70343;BME280;57767;42.068;24.752;2022-12-29T04:12:36;99985.97;;;4.50;74.56
70343;BME280;57767;42.068;24.752;2022-12-29T04:13:37;99978.38;;;4.47;74.77
70343;BME280;57767;42.068;24.752;2022-12-29T04:14:42;99993.53;;;4.53;74.56
70343;BME280;57767;42.068;24.752;2022-12-29T04:15:44;99989.09;;;4.63;73.84
70343;BME280;57767;42.068;24.752;2022-12-29T04:16:46;99955.53;;;4.49;73.90
70343;BME280;57767;42.068;24.752;2022-12-29T04:17:48;99986.34;;;4.65;73.09
70343;BME280;57767;42.068;24.752;2022-12-29T04:18:50;99993.50;;;4.63;73.13
70343;BME280;57767;42.068;24.752;2022-12-29T04:19:51;99976.56;;;4.57;73.65
70343;BME280;57767;42.068;24.752;2022-12-29T04:21:14;99985.78;;;4.61;72.82
70343;BME280;57767;42.068;24.752;2022-12-29T04:22:18;99986.88;;;4.68;72.50
70343;BME280;57767;42.068;24.752;2022-12-29T04:23:20;99990.72;;;4.74;72.08
70343;BME280;57767;42.068;24.752;2022-12-29T04:24:22;99992.91;;;4.79;72.64
70343;BME280;57767;42.068;24.752;2022-12-29T04:25:24;99990.97;;;4.81;72.63
70343;BME280;57767;42.068;24.752;2022-12-29T04:26:25;99994.25;;;4.83;72.57
70343;BME280;57767;42.068;24.752;2022-12-29T04:27:27;99992.59;;;4.82;71.46
70343;BME280;57767;42.068;24.752;2022-12-29T04:28:30;99997.84;;;4.82;72.41
70343;BME280;57767;42.068;24.752;2022-12-29T04:29:32;100003.06;;;4.82;72.35
70343;BME280;57767;42.068;24.752;2022-12-29T04:30:34;100007.50;;;4.81;71.92
70343;BME280;57767;42.068;24.752;2022-12-29T04:31:36;100003.88;;;4.82;72.14
70343;BME280;57767;42.068;24.752;2022-12-29T04:32:38;100005.84;;;4.80;72.00
70343;BME280;57767;42.068;24.752;2022-12-29T04:33:39;100006.69;;;4.81;71.61
70343;BME280;57767;42.068;24.752;2022-12-29T04:34:41;100012.06;;;4.79;71.36
70343;BME280;57767;42.068;24.752;2022-12-29T04:35:43;100012.75;;;4.81;71.27
70343;BME280;57767;42.068;24.752;2022-12-29T04:36:45;100009.13;;;4.82;71.61
70343;BME280;57767;42.068;24.752;2022-12-29T04:37:47;100024.53;;;4.85;71.87
70343;BME280;57767;42.068;24.752;2022-12-29T04:38:48;100012.88;;;4.80;71.70
70343;BME280;57767;42.068;24.752;2022-12-29T04:39:50;100020.41;;;4.83;71.87
70343;BME280;57767;42.068;24.752;2022-12-29T04:40:52;100022.06;;;4.84;71.30
70343;BME280;57767;42.068;24.752;2022-12-29T04:41:54;100026.19;;;4.86;71.20
70343;BME280;57767;42.068;24.752;2022-12-29T04:42:56;100023.44;;;4.88;70.79
70343;BME280;57767;42.068;24.752;2022-12-29T04:43:57;100006.69;;;4.81;70.78
70343;BME280;57767;42.068;24.752;2022-12-29T04:44:59;100029.09;;;4.93;71.16
70343;BME280;57767;42.068;24.752;2022-12-29T04:46:01;100029.91;;;4.93;70.87
70343;BME280;57767;42.068;24.752;2022-12-29T04:47:03;100026.59;;;4.91;71.41
70343;BME280;57767;42.068;24.752;2022-12-29T04:48:05;100030.88;;;4.92;71.07
70343;BME280;57767;42.068;24.752;2022-12-29T04:49:07;100029.91;;;4.93;70.85
70343;BME280;57767;42.068;24.752;2022-12-29T04:50:10;100036.94;;;4.93;71.18
70343;BME280;57767;42.068;24.752;2022-12-29T04:51:12;100034.47;;;4.91;71.32
70343;BME280;57767;42.068;24.752;2022-12-29T04:52:14;100020.13;;;4.86;71.04
70343;BME280;57767;42.068;24.752;2022-12-29T04:53:17;100032.66;;;4.92;70.48
70343;BME280;57767;42.068;24.752;2022-12-29T04:54:19;100039.38;;;4.94;69.99
70343;BME280;57767;42.068;24.752;2022-12-29T04:55:21;100032.53;;;4.93;70.13
70343;BME280;57767;42.068;24.752;2022-12-29T04:56:23;100015.50;;;4.70;70.88
70343;BME280;57767;42.068;24.752;2022-12-29T04:57:25;100027.63;;;4.71;71.44
70343;BME280;57767;42.068;24.752;2022-12-29T04:58:27;100027.38;;;4.64;71.06
70343;BME280;57767;42.068;24.752;2022-12-29T04:59:28;100033.16;;;4.58;71.11
70343;BME280;57767;42.068;24.752;2022-12-29T05:00:30;100036.34;;;4.52;71.56
70343;BME280;57767;42.068;24.752;2022-12-29T05:01:32;100035.66;;;4.50;72.09
70343;BME280;57767;42.068;24.752;2022-12-29T05:02:35;100035.66;;;4.50;71.92
70343;BME280;57767;42.068;24.752;2022-12-29T05:03:37;100030.13;;;4.44;71.95
70343;BME280;57767;42.068;24.752;2022-12-29T05:04:39;100036.75;;;4.48;72.70
70343;BME280;57767;42.068;24.752;2022-12-29T05:05:41;100021.88;;;4.48;73.20
70343;BME280;57767;42.068;24.752;2022-12-29T05:06:42;100033.72;;;4.52;73.26
70343;BME280;57767;42.068;24.752;2022-12-29T05:07:44;100033.72;;;4.52;72.89
70343;BME280;57767;42.068;24.752;2022-12-29T05:08:46;100023.41;;;4.51;73.21
70343;BME280;57767;42.068;24.752;2022-12-29T05:09:48;100035.06;;;4.56;73.15
70343;BME280;57767;42.068;24.752;2022-12-29T05:10:50;100033.16;;;4.58;73.60
70343;BME280;57767;42.068;24.752;2022-12-29T05:11:52;100029.56;;;4.59;72.71
70343;BME280;57767;42.068;24.752;2022-12-29T05:12:54;100033.16;;;4.58;72.78
70343;BME280;57767;42.068;24.752;2022-12-29T05:13:56;100038.94;;;4.62;72.74
70343;BME280;57767;42.068;24.752;2022-12-29T05:14:58;100037.84;;;4.64;73.12
70343;BME280;57767;42.068;24.752;2022-12-29T05:16:00;100039.22;;;4.59;72.53
70343;BME280;57767;42.068;24.752;2022-12-29T05:17:01;100046.91;;;4.60;73.16
70343;BME280;57767;42.068;24.752;2022-12-29T05:18:03;100042.78;;;4.58;72.50
70343;BME280;57767;42.068;24.752;2022-12-29T05:19:05;100046.91;;;4.60;72.81
70343;BME280;57767;42.068;24.752;2022-12-29T05:20:08;100040.03;;;4.59;72.54
70343;BME280;57767;42.068;24.752;2022-12-29T05:21:10;100038.25;;;4.60;73.20
70343;BME280;57767;42.068;24.752;2022-12-29T05:22:12;100038.09;;;4.61;72.81
70343;BME280;57767;42.068;24.752;2022-12-29T05:23:15;100038.81;;;4.63;72.79
70343;BME280;57767;42.068;24.752;2022-12-29T05:24:17;100030.53;;;4.58;72.67
70343;BME280;57767;42.068;24.752;2022-12-29T05:25:19;100043.88;;;4.65;71.73
70343;BME280;57767;42.068;24.752;2022-12-29T05:26:21;100033.56;;;4.63;72.15
70343;BME280;57767;42.068;24.752;2022-12-29T05:27:23;100030.41;;;4.60;72.28
70343;BME280;57767;42.068;24.752;2022-12-29T05:28:24;100031.66;;;4.56;72.01
70343;BME280;57767;42.068;24.752;2022-12-29T05:29:26;100022.56;;;4.50;71.96
70343;BME280;57767;42.068;24.752;2022-12-29T05:30:28;100032.47;;;4.56;72.24
70343;BME280;57767;42.068;24.752;2022-12-29T05:31:30;100026.84;;;4.51;72.37
70343;BME280;57767;42.068;24.752;2022-12-29T05:32:31;100027.13;;;4.48;73.09
70343;BME280;57767;42.068;24.752;2022-12-29T05:33:33;100023.81;;;4.46;73.27
70343;BME280;57767;42.068;24.752;2022-12-29T05:34:35;100024.63;;;4.47;73.15
70343;BME280;57767;42.068;24.752;2022-12-29T05:35:37;100028.50;;;4.33;73.13
70343;BME280;57767;42.068;24.752;2022-12-29T05:36:39;100008.31;;;4.16;73.62
70343;BME280;57767;42.068;24.752;2022-12-29T05:37:40;100017.81;;;4.17;74.01
70343;BME280;57767;42.068;24.752;2022-12-29T05:38:42;100020.28;;;4.09;73.82
70343;BME280;57767;42.068;24.752;2022-12-29T05:39:44;100031.28;;;4.03;74.77
70343;BME280;57767;42.068;24.752;2022-12-29T05:40:46;100028.25;;;3.97;73.98
70343;BME280;57767;42.068;24.752;2022-12-29T05:41:47;100028.50;;;3.94;74.29
70343;BME280;57767;42.068;24.752;2022-12-29T05:42:49;100031.69;;;3.98;73.30
70343;BME280;57767;42.068;24.752;2022-12-29T05:43:51;100027.28;;;3.99;73.74
70343;BME280;57767;42.068;24.752;2022-12-29T05:44:53;100018.34;;;3.91;72.78
70343;BME280;57767;42.068;24.752;2022-12-29T05:45:55;100019.31;;;3.90;72.67
70343;BME280;57767;42.068;24.752;2022-12-29T05:46:57;100021.81;;;3.92;73.36
70343;BME280;57767;42.068;24.752;2022-12-29T05:47:59;100018.19;;;3.93;73.31
70343;BME280;57767;42.068;24.752;2022-12-29T05:49:01;100023.59;;;3.91;73.20
70343;BME280;57767;42.068;24.752;2022-12-29T05:50:03;100012.28;;;3.81;73.49
70343;BME280;57767;42.068;24.752;2022-12-29T05:51:05;100013.25;;;3.80;73.67
70343;BME280;57767;42.068;24.752;2022-12-29T05:52:08;100018.34;;;3.82;73.78
70343;BME280;57767;42.068;24.752;2022-12-29T05:53:09;100013.09;;;3.82;73.46
70343;BME280;57767;42.068;24.752;2022-12-29T05:54:11;100014.75;;;3.83;73.59
70343;BME280;57767;42.068;24.752;2022-12-29T05:55:13;100016.97;;;3.87;73.21
70343;BME280;57767;42.068;24.752;2022-12-29T05:56:15;100010.09;;;3.86;73.48
70343;BME280;57767;42.068;24.752;2022-12-29T05:57:17;100007.22;;;3.80;73.15
70343;BME280;57767;42.068;24.752;2022-12-29T05:58:20;100007.88;;;3.82;73.84
70343;BME280;57767;42.068;24.752;2022-12-29T05:59:21;100007.34;;;3.78;73.89
70343;BME280;57767;42.068;24.752;2022-12-29T06:00:23;99998.81;;;3.76;74.01
70343;BME280;57767;42.068;24.752;2022-12-29T06:01:25;100002.00;;;3.80;73.33
70343;BME280;57767;42.068;24.752;2022-12-29T06:02:27;100011.31;;;3.73;74.47
70343;BME280;57767;42.068;24.752;2022-12-29T06:03:29;100015.16;;;3.69;75.03
70343;BME280;57767;42.068;24.752;2022-12-29T06:04:31;100018.19;;;3.74;74.73
70343;BME280;57767;42.068;24.752;2022-12-29T06:05:33;100020.25;;;3.70;74.53
70343;BME280;57767;42.068;24.752;2022-12-29T06:06:35;100016.66;;;3.62;75.74
70343;BME280;57767;42.068;24.752;2022-12-29T06:07:37;100016.09;;;3.58;75.78
70343;BME280;57767;42.068;24.752;2022-12-29T06:08:38;100017.06;;;3.57;76.33
70343;BME280;57767;42.068;24.752;2022-12-29T06:09:40;100024.34;;;3.53;76.11
70343;BME280;57767;42.068;24.752;2022-12-29T06:10:42;100013.59;;;3.47;76.62
70343;BME280;57767;42.068;24.752;2022-12-29T06:11:43;100023.09;;;3.48;76.76
70343;BME280;57767;42.068;24.752;2022-12-29T06:12:45;100016.59;;;3.42;76.79
70343;BME280;57767;42.068;24.752;2022-12-29T06:13:47;100012.75;;;3.37;77.46
70343;BME280;57767;42.068;24.752;2022-12-29T06:14:49;100024.88;;;3.38;77.93
70343;BME280;57767;42.068;24.752;2022-12-29T06:15:51;100027.28;;;3.30;78.86
70343;BME280;57767;42.068;24.752;2022-12-29T06:16:53;100020.25;;;3.20;79.02
70343;BME280;57767;42.068;24.752;2022-12-29T06:17:55;100022.19;;;3.18;79.34
70343;BME280;57767;42.068;24.752;2022-12-29T06:18:56;100013.38;;;3.19;79.66
70343;BME280;57767;42.068;24.752;2022-12-29T06:19:58;100012.75;;;3.27;79.37
70343;BME280;57767;42.068;24.752;2022-12-29T06:21:01;100016.22;;;3.37;79.16
70343;BME280;57767;42.068;24.752;2022-12-29T06:22:03;100016.34;;;3.36;79.64
70343;BME280;57767;42.068;24.752;2022-12-29T06:23:05;100018.69;;;3.39;79.85
70343;BME280;57767;42.068;24.752;2022-12-29T06:24:07;100018.50;;;3.31;80.00